Allamuchy, New Jersey
Current Conditions -  °F | °C
As of 2:53 AM on Friday 19 Dec 2014 (Local Time) from KFWN Reporting Station
Overcast Overcast  
Wind Chill: 29°   Ceiling: 3400
Heat Index: 35°   Visibility: 10mi
Dew Point: 24°   Wind: 7mph
Humidity: 64%   Direction: 320°NW
Pressure: 29.97"   Gusts: NA
Location:  40.92°N, 74.81°W
Report Text: KFWN 190753Z AUTO 32006KT 10SM OVC034 02/M04 A2997 RMK AO2 SLP152 T00171044
Loading
Personal Weather Stations






























Interactive Weather Map New forecast layout! Learn more

10-Day Weather Forecast

Advertisements
Track Severe Weather on mobile